KAJR

Habersham County Airport

Cornelia, Georgia, USA
METAR KAJR 180155Z AUTO 21006KT 10SM CLR 24/24 A3015 RMK AO2 LTG DSNT E T02350235
Observed Flight Rules
Aug-18 @ 01:55 UTC (34 minutes ago) Visual Flight Rules
Wind Visibility Clouds
210° at 6 knots 10 miles
  • Clear skies
Temperatures Readings
Current 24°C / 75°F
Dewpoint 24°C / 75°F
Humidity 100%
Altimeter 30.15" Hg
Pressure 1021 hPa
Elevation 441
METAR KAJR 180155Z AUTO 21006KT 10SM CLR 24/24 A3015 RMK AO2 LTG DSNT E T02350235
Observed Flight Rules
Aug-18 @ 01:55 UTC
(34 minutes ago)
VFR
Wind Visibility
210° at 6 knots 10 miles
Clouds
  • Clear skies
Temperature Dewpoint
24°C / 75°F 24°C / 75°F
Humidity Altimeter Pressure
100% 30.15" Hg 1021 hPa